Terminal Aerodrome Forecast
Issued by NWS

Home | Current Version | Previous Version | Text Only | Print | Product List | Glossary On
Versions: 1 2 3 4 5 6 7 8 9 10 11 12 13 14
000
FTUS46 KSTO 231700
TAFSCK
TAF
KSCK 231726Z 2318/2418 VRB04KT P6SM SKC
     FM232000 30008KT P6SM SCT250
     FM240000 29011G18KT P6SM SCT250
     FM240600 VRB05KT P6SM BKN200=

USA.gov is the U.S. government's official web portal to all federal, state and local government web resources and services.